createdAt,value
2019-05-25T00:00:52.807Z,998.12
2019-05-25T00:01:52.815Z,998.11
2019-05-25T00:02:52.801Z,998.10
2019-05-25T00:03:52.775Z,998.12
2019-05-25T00:04:52.764Z,998.06
2019-05-25T00:05:52.756Z,998.04
2019-05-25T00:06:52.780Z,998.02
2019-05-25T00:07:52.726Z,997.99
2019-05-25T00:08:52.717Z,997.98
2019-05-25T00:09:52.704Z,997.99
2019-05-25T00:10:52.695Z,997.94
2019-05-25T00:11:52.684Z,997.91
2019-05-25T00:12:52.705Z,997.90
2019-05-25T00:14:02.832Z,997.88
2019-05-25T00:14:52.654Z,997.85
2019-05-25T00:15:52.637Z,997.85
2019-05-25T00:16:52.633Z,997.85
2019-05-25T00:17:52.621Z,997.87
2019-05-25T00:18:52.643Z,997.84
2019-05-25T00:19:52.597Z,997.79
2019-05-25T00:20:52.620Z,997.80
2019-05-25T00:21:52.575Z,997.78
2019-05-25T00:22:52.559Z,997.76
2019-05-25T00:23:52.547Z,997.76
2019-05-25T00:24:52.581Z,997.75
2019-05-25T00:25:52.524Z,997.72
2019-05-25T00:26:52.525Z,997.75
2019-05-25T00:27:52.511Z,997.75
2019-05-25T00:28:52.491Z,997.76
2019-05-25T00:29:52.481Z,997.73
2019-05-25T00:30:52.480Z,997.68
2019-05-25T00:31:52.468Z,997.63
2019-05-25T00:32:52.455Z,997.65
2019-05-25T00:33:52.438Z,997.68
2019-05-25T00:34:52.441Z,997.66
2019-05-25T00:35:52.420Z,997.67
2019-05-25T00:36:52.412Z,997.66
2019-05-25T00:37:52.399Z,997.64
2019-05-25T00:38:52.388Z,997.65
2019-05-25T00:39:52.428Z,997.66
2019-05-25T00:40:52.368Z,997.58
2019-05-25T00:41:52.353Z,997.64
2019-05-25T00:42:52.345Z,997.61
2019-05-25T00:43:52.327Z,997.63
2019-05-25T00:45:02.451Z,997.58
2019-05-25T00:45:52.305Z,997.53
2019-05-25T00:46:52.309Z,997.53
2019-05-25T00:47:52.280Z,997.53
2019-05-25T00:48:52.277Z,997.52
2019-05-25T00:49:52.302Z,997.48
2019-05-25T00:50:52.254Z,997.48
2019-05-25T00:51:52.237Z,997.49
2019-05-25T00:52:52.225Z,997.44
2019-05-25T00:53:52.221Z,997.43
2019-05-25T00:54:52.201Z,997.49
2019-05-25T00:55:52.213Z,997.41
2019-05-25T00:56:52.185Z,997.45
2019-05-25T00:57:52.174Z,997.45
2019-05-25T00:58:52.160Z,997.42
2019-05-25T00:59:52.152Z,997.46
2019-05-25T01:00:52.139Z,997.44
2019-05-25T01:01:52.139Z,997.38
2019-05-25T01:02:52.163Z,997.39
2019-05-25T01:03:52.108Z,997.38
2019-05-25T01:04:52.096Z,997.33
2019-05-25T01:05:52.088Z,997.35
2019-05-25T01:06:52.109Z,997.34
2019-05-25T01:07:52.070Z,997.25
2019-05-25T01:08:52.049Z,997.34
2019-05-25T01:09:52.034Z,997.32
2019-05-25T01:10:52.029Z,997.29
2019-05-25T01:11:52.014Z,997.26
2019-05-25T01:12:52.071Z,997.27
2019-05-25T01:13:51.997Z,997.28
2019-05-25T01:14:51.980Z,997.28
2019-05-25T01:16:02.132Z,997.28
2019-05-25T01:16:51.976Z,997.28
2019-05-25T01:17:51.954Z,997.25
2019-05-25T01:18:52.016Z,997.22
2019-05-25T01:19:51.928Z,997.20
2019-05-25T01:20:51.916Z,997.20
2019-05-25T01:21:51.906Z,997.24
2019-05-25T01:22:51.895Z,997.19
2019-05-25T01:23:51.878Z,997.17
2019-05-25T01:24:51.887Z,997.14
2019-05-25T01:25:51.856Z,997.11
2019-05-25T01:26:51.845Z,997.11
2019-05-25T01:27:51.850Z,997.13
2019-05-25T01:28:51.831Z,997.08
2019-05-25T01:29:51.821Z,997.14
2019-05-25T01:30:51.802Z,997.06
2019-05-25T01:31:51.794Z,997.01
2019-05-25T01:32:51.779Z,997.00
2019-05-25T01:33:51.770Z,997.02
2019-05-25T01:34:51.764Z,997.00
2019-05-25T01:35:51.744Z,996.97
2019-05-25T01:36:51.738Z,996.93
2019-05-25T01:37:51.728Z,996.93
2019-05-25T01:38:51.725Z,996.93
2019-05-25T01:39:51.701Z,996.89
2019-05-25T01:40:51.698Z,996.89
2019-05-25T01:41:51.680Z,996.90
2019-05-25T01:42:51.671Z,996.87
2019-05-25T01:43:51.671Z,996.88
2019-05-25T01:44:51.644Z,996.88
2019-05-25T01:45:51.634Z,996.92
2019-05-25T01:47:04.103Z,996.88
2019-05-25T01:47:51.618Z,996.89
2019-05-25T01:48:51.699Z,996.82
2019-05-25T01:49:51.593Z,996.85
2019-05-25T01:50:51.577Z,996.85
2019-05-25T01:51:51.573Z,996.79
2019-05-25T01:52:51.560Z,996.84
2019-05-25T01:53:51.553Z,996.84
2019-05-25T01:55:00.076Z,996.84
2019-05-25T01:55:52.528Z,996.82
2019-05-25T01:56:51.510Z,996.86
2019-05-25T01:57:51.510Z,996.85
2019-05-25T01:58:51.490Z,996.85
2019-05-25T01:59:51.515Z,996.84
2019-05-25T02:00:51.475Z,996.79
2019-05-25T02:01:51.458Z,996.79
2019-05-25T02:02:51.451Z,996.78
2019-05-25T02:03:51.434Z,996.78
2019-05-25T02:04:51.421Z,996.81
2019-05-25T02:05:51.423Z,996.81
2019-05-25T02:06:51.401Z,996.82
2019-05-25T02:07:51.391Z,996.81
2019-05-25T02:08:51.381Z,996.84
2019-05-25T02:09:51.365Z,996.82
2019-05-25T02:10:51.394Z,996.82
2019-05-25T02:11:51.346Z,996.82
2019-05-25T02:12:51.339Z,996.81
2019-05-25T02:13:51.330Z,996.82
2019-05-25T02:14:51.312Z,996.80
2019-05-25T02:15:51.304Z,996.79
2019-05-25T02:16:51.303Z,996.79
2019-05-25T02:18:03.007Z,996.79
2019-05-25T02:18:51.276Z,996.82
2019-05-25T02:19:51.460Z,996.77
2019-05-25T02:20:51.253Z,996.79
2019-05-25T02:21:51.343Z,996.77
2019-05-25T02:22:51.222Z,996.85
2019-05-25T02:23:51.215Z,996.81
2019-05-25T02:24:51.231Z,996.73
2019-05-25T02:25:51.193Z,996.71
2019-05-25T02:26:51.194Z,996.74
2019-05-25T02:27:51.182Z,996.74
2019-05-25T02:28:51.186Z,996.72
2019-05-25T02:29:51.155Z,996.68
2019-05-25T02:30:51.138Z,996.73
2019-05-25T02:31:51.132Z,996.74
2019-05-25T02:32:51.154Z,996.74
2019-05-25T02:33:51.111Z,996.71
2019-05-25T02:34:51.095Z,996.71
2019-05-25T02:35:51.085Z,996.69
2019-05-25T02:36:51.072Z,996.66
2019-05-25T02:37:51.066Z,996.67
2019-05-25T02:38:51.057Z,996.70
2019-05-25T02:39:51.042Z,996.66
2019-05-25T02:40:51.024Z,996.67
2019-05-25T02:41:51.015Z,996.68
2019-05-25T02:42:51.008Z,996.72
2019-05-25T02:43:51.002Z,996.66
2019-05-25T02:44:50.993Z,996.65
2019-05-25T02:45:50.974Z,996.66
2019-05-25T02:46:50.965Z,996.62
2019-05-25T02:47:50.968Z,996.66
2019-05-25T02:49:02.149Z,996.62
2019-05-25T02:49:50.974Z,996.67
2019-05-25T02:50:53.052Z,996.63
2019-05-25T02:51:50.905Z,996.62
2019-05-25T02:52:50.899Z,996.60
2019-05-25T02:53:50.879Z,996.56
2019-05-25T02:54:50.883Z,996.52
2019-05-25T02:55:50.856Z,996.49
2019-05-25T02:56:50.849Z,996.45
2019-05-25T02:57:50.833Z,996.48
2019-05-25T02:58:50.823Z,996.45
2019-05-25T02:59:50.854Z,996.51
2019-05-25T03:00:50.803Z,996.51
2019-05-25T03:01:50.788Z,996.47
2019-05-25T03:02:50.781Z,996.50
2019-05-25T03:03:50.773Z,996.49
2019-05-25T03:04:50.756Z,996.44
2019-05-25T03:05:50.755Z,996.45
2019-05-25T03:06:50.732Z,996.45
2019-05-25T03:07:50.725Z,996.44
2019-05-25T03:08:50.718Z,996.47
2019-05-25T03:09:50.699Z,996.44
2019-05-25T03:10:50.819Z,996.46
2019-05-25T03:11:50.678Z,996.43
2019-05-25T03:12:50.671Z,996.34
2019-05-25T03:13:50.660Z,996.35
2019-05-25T03:14:50.653Z,996.35
2019-05-25T03:15:50.638Z,996.36
2019-05-25T03:16:50.663Z,996.39
2019-05-25T03:17:50.612Z,996.42
2019-05-25T03:18:50.600Z,996.41
2019-05-25T03:20:01.310Z,996.35
2019-05-25T03:20:50.579Z,996.36
2019-05-25T03:21:50.574Z,996.29
2019-05-25T03:22:50.601Z,996.32
2019-05-25T03:23:50.543Z,996.33
2019-05-25T03:24:50.533Z,996.25
2019-05-25T03:25:50.524Z,996.29
2019-05-25T03:26:50.511Z,996.29
2019-05-25T03:27:50.505Z,996.34
2019-05-25T03:28:50.496Z,996.30
2019-05-25T03:29:50.480Z,996.32
2019-05-25T03:30:50.470Z,996.32
2019-05-25T03:31:50.463Z,996.33
2019-05-25T03:32:50.449Z,996.27
2019-05-25T03:33:50.441Z,996.28
2019-05-25T03:34:50.428Z,996.28
2019-05-25T03:35:50.417Z,996.25
2019-05-25T03:36:50.401Z,996.21
2019-05-25T03:37:50.427Z,996.27
2019-05-25T03:38:50.377Z,996.23
2019-05-25T03:39:50.368Z,996.26
2019-05-25T03:40:50.360Z,996.23
2019-05-25T03:41:50.343Z,996.24
2019-05-25T03:42:50.337Z,996.19
2019-05-25T03:43:50.339Z,996.18
2019-05-25T03:44:50.309Z,996.16
2019-05-25T03:45:50.304Z,996.17
2019-05-25T03:46:50.289Z,996.19
2019-05-25T03:47:50.281Z,996.15
2019-05-25T03:48:50.270Z,996.20
2019-05-25T03:49:50.294Z,996.17
2019-05-25T03:51:00.106Z,996.25
2019-05-25T03:51:50.235Z,996.17
2019-05-25T03:52:50.227Z,996.20
2019-05-25T03:53:50.208Z,996.13
2019-05-25T03:54:50.205Z,996.11
2019-05-25T03:56:04.690Z,996.11
2019-05-25T03:56:51.173Z,996.16
2019-05-25T03:57:50.163Z,996.14
2019-05-25T03:58:50.157Z,996.16
2019-05-25T03:59:50.148Z,996.15
2019-05-25T04:00:50.141Z,996.11
2019-05-25T04:01:50.122Z,996.18
2019-05-25T04:02:50.197Z,996.10
2019-05-25T04:03:50.101Z,996.10
2019-05-25T04:04:50.092Z,996.08
2019-05-25T04:05:50.082Z,996.08
2019-05-25T04:06:50.064Z,996.09
2019-05-25T04:07:50.054Z,996.12
2019-05-25T04:08:50.048Z,996.14
2019-05-25T04:09:50.031Z,996.13
2019-05-25T04:10:50.034Z,996.09
2019-05-25T04:11:50.021Z,996.06
2019-05-25T04:12:49.999Z,996.12
2019-05-25T04:13:49.988Z,996.02
2019-05-25T04:14:49.974Z,996.03
2019-05-25T04:15:50.007Z,996.03
2019-05-25T04:16:49.972Z,995.97
2019-05-25T04:17:49.941Z,996.01
2019-05-25T04:18:49.934Z,995.97
2019-05-25T04:19:49.921Z,995.97
2019-05-25T04:20:49.908Z,995.97
2019-05-25T04:22:00.290Z,995.87
2019-05-25T04:22:49.889Z,995.91
2019-05-25T04:23:49.884Z,995.93
2019-05-25T04:24:49.867Z,995.85
2019-05-25T04:25:49.859Z,995.85
2019-05-25T04:26:49.844Z,995.84
2019-05-25T04:27:49.868Z,995.81
2019-05-25T04:28:49.826Z,995.81
2019-05-25T04:29:49.815Z,995.81
2019-05-25T04:30:49.814Z,995.82
2019-05-25T04:31:49.787Z,995.79
2019-05-25T04:32:49.792Z,995.78
2019-05-25T04:33:49.780Z,995.80
2019-05-25T04:34:49.755Z,995.78
2019-05-25T04:35:49.746Z,995.73
2019-05-25T04:36:49.734Z,995.76
2019-05-25T04:37:49.724Z,995.73
2019-05-25T04:38:49.743Z,995.73
2019-05-25T04:39:49.700Z,995.75
2019-05-25T04:40:49.691Z,995.67
2019-05-25T04:41:49.684Z,995.70
2019-05-25T04:42:49.668Z,995.71
2019-05-25T04:43:49.663Z,995.74
2019-05-25T04:44:49.646Z,995.75
2019-05-25T04:45:49.641Z,995.74
2019-05-25T04:46:49.622Z,995.76
2019-05-25T04:47:49.615Z,995.75
2019-05-25T04:48:49.608Z,995.74
2019-05-25T04:49:49.596Z,995.75
2019-05-25T04:50:49.578Z,995.79
2019-05-25T04:51:49.569Z,995.78
2019-05-25T04:53:00.109Z,995.73
2019-05-25T04:53:49.548Z,995.69
2019-05-25T04:54:49.575Z,995.78
2019-05-25T04:55:49.531Z,995.74
2019-05-25T04:56:49.519Z,995.69
2019-05-25T04:57:49.504Z,995.70
2019-05-25T04:58:49.496Z,995.75
2019-05-25T04:59:49.489Z,995.70
2019-05-25T05:00:49.479Z,995.72
2019-05-25T05:01:49.467Z,995.68
2019-05-25T05:02:49.460Z,995.63
2019-05-25T05:03:49.437Z,995.57
2019-05-25T05:04:49.429Z,995.60
2019-05-25T05:05:49.423Z,995.58
2019-05-25T05:06:49.673Z,995.61
2019-05-25T05:07:49.393Z,995.62
2019-05-25T05:08:49.385Z,995.62
2019-05-25T05:10:01.570Z,995.60
2019-05-25T05:10:50.370Z,995.61
2019-05-25T05:11:49.350Z,995.59
2019-05-25T05:12:49.338Z,995.59
2019-05-25T05:13:49.327Z,995.55
2019-05-25T05:14:49.315Z,995.49
2019-05-25T05:15:49.320Z,995.47
2019-05-25T05:16:49.296Z,995.41
2019-05-25T05:17:49.280Z,995.38
2019-05-25T05:18:49.268Z,995.44
2019-05-25T05:19:49.260Z,995.40
2019-05-25T05:20:49.246Z,995.39
2019-05-25T05:21:49.250Z,995.39
2019-05-25T05:22:49.229Z,995.42
2019-05-25T05:24:00.468Z,995.42
2019-05-25T05:24:49.204Z,995.37
2019-05-25T05:25:49.204Z,995.32
2019-05-25T05:26:55.941Z,995.31
2019-05-25T05:27:50.169Z,995.32
2019-05-25T05:28:49.351Z,995.30
2019-05-25T05:29:49.151Z,995.27
2019-05-25T05:30:49.143Z,995.28
2019-05-25T05:31:49.124Z,995.29
2019-05-25T05:32:49.126Z,995.33
2019-05-25T05:33:49.107Z,995.29
2019-05-25T05:34:49.093Z,995.27
2019-05-25T05:35:49.082Z,995.26
2019-05-25T05:36:49.111Z,995.29
2019-05-25T05:37:49.056Z,995.27
2019-05-25T05:38:49.052Z,995.28
2019-05-25T05:39:49.037Z,995.27
2019-05-25T05:40:49.030Z,995.25
2019-05-25T05:41:49.021Z,995.24
2019-05-25T05:42:49.013Z,995.19
2019-05-25T05:43:48.993Z,995.22
2019-05-25T05:44:48.979Z,995.26
2019-05-25T05:45:48.970Z,995.20
2019-05-25T05:46:48.956Z,995.19
2019-05-25T05:47:48.956Z,995.17
2019-05-25T05:49:48.926Z,995.04
2019-05-25T05:50:48.916Z,995.03
2019-05-25T05:51:48.903Z,995.03
2019-05-25T05:52:48.933Z,994.99
2019-05-25T05:54:59.945Z,994.96
2019-05-25T05:55:48.928Z,994.95
2019-05-25T05:56:48.850Z,994.92
2019-05-25T05:57:48.835Z,994.95
2019-05-25T05:59:48.818Z,994.92
2019-05-25T06:00:48.802Z,994.92
2019-05-25T06:01:48.792Z,994.95
2019-05-25T06:02:48.782Z,994.94
2019-05-25T06:03:48.774Z,994.94
2019-05-25T06:04:48.756Z,994.90
2019-05-25T06:05:48.749Z,994.85
2019-05-25T06:06:48.741Z,994.87
2019-05-25T06:07:48.721Z,994.88
2019-05-25T06:08:48.722Z,994.86
2019-05-25T06:09:48.705Z,994.88
2019-05-25T06:10:48.704Z,994.93
2019-05-25T06:11:48.676Z,994.96
2019-05-25T06:12:48.670Z,994.95
2019-05-25T06:13:48.659Z,994.98
2019-05-25T06:14:48.706Z,995.01
2019-05-25T06:15:48.640Z,995.09
2019-05-25T06:16:48.620Z,995.07
2019-05-25T06:17:48.612Z,995.02
2019-05-25T06:18:48.606Z,994.99
2019-05-25T06:19:48.591Z,995.00
2019-05-25T06:21:48.564Z,995.04
2019-05-25T06:22:48.559Z,995.04
2019-05-25T06:23:48.545Z,995.06
2019-05-25T06:26:00.441Z,995.04
2019-05-25T06:26:48.509Z,995.05
2019-05-25T06:27:48.513Z,995.03
2019-05-25T06:28:48.516Z,995.05
2019-05-25T06:30:48.594Z,994.96
2019-05-25T06:31:48.469Z,994.91
2019-05-25T06:32:48.459Z,994.94
2019-05-25T06:33:48.436Z,994.85
2019-05-25T06:34:48.427Z,994.85
2019-05-25T06:35:48.416Z,994.86
2019-05-25T06:36:48.434Z,994.86
2019-05-25T06:37:48.395Z,994.85
2019-05-25T06:38:48.384Z,994.85
2019-05-25T06:39:48.376Z,994.80
2019-05-25T06:40:48.355Z,994.78
2019-05-25T06:41:48.345Z,994.74
2019-05-25T06:42:48.342Z,994.71
2019-05-25T06:43:48.320Z,994.75
2019-05-25T06:44:48.326Z,994.71
2019-05-25T06:45:48.302Z,994.72
2019-05-25T06:46:48.292Z,994.74
2019-05-25T06:47:48.283Z,994.73
2019-05-25T06:48:48.271Z,994.73
2019-05-25T06:49:48.258Z,994.67
2019-05-25T06:50:48.242Z,994.73
2019-05-25T06:51:48.313Z,994.65
2019-05-25T06:53:48.213Z,994.69
2019-05-25T06:54:48.203Z,994.65
2019-05-25T06:56:59.654Z,994.64
2019-05-25T06:57:48.267Z,994.61
2019-05-25T06:58:48.161Z,994.59
2019-05-25T06:59:48.157Z,994.61
2019-05-25T07:00:48.132Z,994.58
2019-05-25T07:01:48.120Z,994.60
2019-05-25T07:02:48.106Z,994.61
2019-05-25T07:03:48.098Z,994.59
2019-05-25T07:04:48.101Z,994.60
2019-05-25T07:05:48.080Z,994.58
2019-05-25T07:06:48.062Z,994.60
2019-05-25T07:07:48.057Z,994.59
2019-05-25T07:08:48.040Z,994.59
2019-05-25T07:09:48.035Z,994.63
2019-05-25T07:10:48.022Z,994.57
2019-05-25T07:11:48.009Z,994.59
2019-05-25T07:12:48.003Z,994.63
2019-05-25T07:13:47.984Z,994.63
2019-05-25T07:14:47.988Z,994.59
2019-05-25T07:15:47.989Z,994.59
2019-05-25T07:16:47.950Z,994.62
2019-05-25T07:17:47.944Z,994.63
2019-05-25T07:18:47.930Z,994.60
2019-05-25T07:19:47.921Z,994.64
2019-05-25T07:20:47.923Z,994.62
2019-05-25T07:21:47.892Z,994.61
2019-05-25T07:22:47.887Z,994.59
2019-05-25T07:23:47.873Z,994.56
2019-05-25T07:25:47.847Z,994.54
2019-05-25T07:28:00.460Z,994.57
2019-05-25T07:28:47.822Z,994.50
2019-05-25T07:29:47.808Z,994.50
2019-05-25T07:30:47.792Z,994.55
2019-05-25T07:31:47.791Z,994.56
2019-05-25T07:32:47.776Z,994.50
2019-05-25T07:33:47.764Z,994.51
2019-05-25T07:34:47.747Z,994.51
2019-05-25T07:35:47.736Z,994.49
2019-05-25T07:36:47.734Z,994.47
2019-05-25T07:37:47.722Z,994.41
2019-05-25T07:38:47.709Z,994.39
2019-05-25T07:39:47.695Z,994.45
2019-05-25T07:40:47.680Z,994.40
2019-05-25T07:41:47.679Z,994.37
2019-05-25T07:42:47.666Z,994.39
2019-05-25T07:43:47.650Z,994.38
2019-05-25T07:44:47.644Z,994.39
2019-05-25T07:45:47.629Z,994.33
2019-05-25T07:46:47.621Z,994.31
2019-05-25T07:47:47.641Z,994.31
2019-05-25T07:48:50.342Z,994.27
2019-05-25T07:49:47.587Z,994.29
2019-05-25T07:50:47.576Z,994.29
2019-05-25T07:51:47.566Z,994.29
2019-05-25T07:52:47.554Z,994.26
2019-05-25T07:53:47.547Z,994.29
2019-05-25T07:54:47.533Z,994.25
2019-05-25T07:55:47.516Z,994.23
2019-05-25T07:58:59.888Z,994.15
2019-05-25T07:59:47.471Z,994.13
2019-05-25T08:00:47.473Z,994.09
2019-05-25T08:01:47.447Z,994.07
2019-05-25T08:02:47.439Z,994.07
2019-05-25T08:03:47.440Z,994.03
2019-05-25T08:04:47.459Z,994.03
2019-05-25T08:05:47.408Z,994.05
2019-05-25T08:06:47.398Z,994.00
2019-05-25T08:07:47.390Z,994.03
2019-05-25T08:08:47.382Z,993.99
2019-05-25T08:09:47.364Z,993.98
2019-05-25T08:10:47.359Z,994.00
2019-05-25T08:11:47.340Z,994.00
2019-05-25T08:12:47.332Z,993.97
2019-05-25T08:13:47.321Z,993.97
2019-05-25T08:14:47.308Z,993.98
2019-05-25T08:15:47.311Z,994.02
2019-05-25T08:16:47.290Z,993.94
2019-05-25T08:17:47.274Z,993.98
2019-05-25T08:18:47.264Z,993.98
2019-05-25T08:19:47.256Z,993.93
2019-05-25T08:20:47.613Z,993.97
2019-05-25T08:21:47.274Z,993.93
2019-05-25T08:22:47.219Z,993.94
2019-05-25T08:23:47.211Z,993.95
2019-05-25T08:24:47.197Z,993.93
2019-05-25T08:25:47.195Z,993.91
2019-05-25T08:26:47.178Z,993.88
2019-05-25T08:27:47.173Z,993.83
2019-05-25T08:29:57.605Z,993.82
2019-05-25T08:30:47.159Z,993.75
2019-05-25T08:31:47.142Z,993.78
2019-05-25T08:32:47.110Z,993.80
2019-05-25T08:33:47.107Z,993.79
2019-05-25T08:34:47.088Z,993.78
2019-05-25T08:35:47.080Z,993.76
2019-05-25T08:36:47.068Z,993.79
2019-05-25T08:37:47.097Z,993.76
2019-05-25T08:38:47.052Z,993.74
2019-05-25T08:39:47.036Z,993.67
2019-05-25T08:40:47.029Z,993.67
2019-05-25T08:41:47.012Z,993.73
2019-05-25T08:42:47.061Z,993.74
2019-05-25T08:43:47.031Z,993.73
2019-05-25T08:44:46.985Z,993.72
2019-05-25T08:45:46.982Z,993.72
2019-05-25T08:46:46.960Z,993.70
2019-05-25T08:47:46.947Z,993.63
2019-05-25T08:48:46.941Z,993.67
2019-05-25T08:49:46.946Z,993.63
2019-05-25T08:50:46.918Z,993.61
2019-05-25T08:51:46.900Z,993.61
2019-05-25T08:52:46.894Z,993.55
2019-05-25T08:53:46.908Z,993.61
2019-05-25T08:54:46.872Z,993.58
2019-05-25T08:55:46.855Z,993.61
2019-05-25T08:56:46.852Z,993.61
2019-05-25T08:57:46.838Z,993.64
2019-05-25T08:58:48.651Z,993.58
2019-05-25T09:01:46.806Z,993.55
2019-05-25T09:02:46.787Z,993.59
2019-05-25T09:03:46.807Z,993.56
2019-05-25T09:04:46.764Z,993.62
2019-05-25T09:05:46.748Z,993.58
2019-05-25T09:06:46.742Z,993.60
2019-05-25T09:07:46.724Z,993.59
2019-05-25T09:08:46.710Z,993.53
2019-05-25T09:09:46.743Z,993.57
2019-05-25T09:10:46.694Z,993.55
2019-05-25T09:11:46.717Z,993.56
2019-05-25T09:12:46.686Z,993.57
2019-05-25T09:13:46.655Z,993.59
2019-05-25T09:14:46.643Z,993.59
2019-05-25T09:15:46.646Z,993.59
2019-05-25T09:16:46.624Z,993.55
2019-05-25T09:17:46.619Z,993.54
2019-05-25T09:18:46.602Z,993.55
2019-05-25T09:19:46.604Z,993.51
2019-05-25T09:20:46.616Z,993.50
2019-05-25T09:22:01.484Z,993.52
2019-05-25T09:22:47.564Z,993.53
2019-05-25T09:23:48.701Z,993.51
2019-05-25T09:24:46.535Z,993.50
2019-05-25T09:25:46.525Z,993.46
2019-05-25T09:26:46.524Z,993.48
2019-05-25T09:27:46.503Z,993.45
2019-05-25T09:28:46.491Z,993.42
2019-05-25T09:29:46.479Z,993.46
2019-05-25T09:31:56.690Z,993.41
2019-05-25T09:32:46.467Z,993.41
2019-05-25T09:33:46.433Z,993.32
2019-05-25T09:34:46.433Z,993.33
2019-05-25T09:35:46.418Z,993.28
2019-05-25T09:36:46.411Z,993.37
2019-05-25T09:37:46.394Z,993.39
2019-05-25T09:38:46.383Z,993.34
2019-05-25T09:39:46.366Z,993.38
2019-05-25T09:40:46.360Z,993.34
2019-05-25T09:41:46.361Z,993.38
2019-05-25T09:42:46.336Z,993.32
2019-05-25T09:43:46.331Z,993.31
2019-05-25T09:44:46.318Z,993.35
2019-05-25T09:45:46.305Z,993.37
2019-05-25T09:46:46.296Z,993.32
2019-05-25T09:47:46.277Z,993.36
2019-05-25T09:48:46.269Z,993.37
2019-05-25T09:49:47.166Z,993.36
2019-05-25T09:50:46.255Z,993.34
2019-05-25T09:51:48.617Z,993.36
2019-05-25T09:52:46.223Z,993.29
2019-05-25T09:53:46.211Z,993.31
2019-05-25T09:54:46.206Z,993.26
2019-05-25T09:55:46.186Z,993.19
2019-05-25T09:56:46.186Z,993.19
2019-05-25T09:57:46.198Z,993.20
2019-05-25T09:58:46.154Z,993.15
2019-05-25T09:59:46.151Z,993.17
2019-05-25T10:00:46.135Z,993.19
2019-05-25T10:01:46.123Z,993.15
2019-05-25T10:02:58.242Z,993.13
2019-05-25T10:03:46.100Z,993.14
2019-05-25T10:04:46.094Z,993.12
2019-05-25T10:05:46.084Z,993.13
2019-05-25T10:06:46.073Z,993.16
2019-05-25T10:07:46.066Z,993.15
2019-05-25T10:08:46.053Z,993.13
2019-05-25T10:09:46.033Z,993.14
2019-05-25T10:10:46.023Z,993.15
2019-05-25T10:11:46.009Z,993.09
2019-05-25T10:12:46.005Z,993.10
2019-05-25T10:13:46.029Z,993.07
2019-05-25T10:14:45.980Z,993.11
2019-05-25T10:15:45.963Z,993.12
2019-05-25T10:16:45.955Z,993.06
2019-05-25T10:17:45.948Z,993.06
2019-05-25T10:18:45.937Z,993.04
2019-05-25T10:19:45.958Z,993.02
2019-05-25T10:20:45.907Z,992.99
2019-05-25T10:21:45.903Z,992.97
2019-05-25T10:22:45.885Z,992.97
2019-05-25T10:23:45.876Z,992.96
2019-05-25T10:24:45.866Z,992.99
2019-05-25T10:25:45.866Z,992.94
2019-05-25T10:26:45.842Z,992.99
2019-05-25T10:27:45.832Z,992.96
2019-05-25T10:28:45.820Z,992.96
2019-05-25T10:29:45.810Z,992.94
2019-05-25T10:30:45.820Z,992.94
2019-05-25T10:31:45.783Z,992.93
2019-05-25T10:32:45.778Z,992.89
2019-05-25T10:33:57.346Z,992.92
2019-05-25T10:34:45.755Z,992.87
2019-05-25T10:35:45.745Z,992.86
2019-05-25T10:36:45.745Z,992.89
2019-05-25T10:37:45.728Z,992.88
2019-05-25T10:38:45.707Z,992.89
2019-05-25T10:39:45.704Z,992.86
2019-05-25T10:40:45.686Z,992.88
2019-05-25T10:41:45.690Z,992.89
2019-05-25T10:42:45.664Z,992.85
2019-05-25T10:43:45.649Z,992.79
2019-05-25T10:44:45.643Z,992.83
2019-05-25T10:45:45.630Z,992.80
2019-05-25T10:46:45.655Z,992.75
2019-05-25T10:47:45.610Z,992.80
2019-05-25T10:48:45.601Z,992.81
2019-05-25T10:49:45.592Z,992.83
2019-05-25T10:50:45.577Z,992.84
2019-05-25T10:51:45.563Z,992.86
2019-05-25T10:52:45.590Z,992.86
2019-05-25T10:53:45.540Z,992.81
2019-05-25T10:54:45.531Z,992.84
2019-05-25T10:55:45.515Z,992.82
2019-05-25T10:56:45.517Z,992.81
2019-05-25T10:57:45.495Z,992.77
2019-05-25T10:58:45.491Z,992.79
2019-05-25T10:59:53.130Z,992.75
2019-05-25T11:00:46.465Z,992.74
2019-05-25T11:01:45.479Z,992.63
2019-05-25T11:02:45.483Z,992.66
2019-05-25T11:03:45.427Z,992.71
2019-05-25T11:04:56.491Z,992.64
2019-05-25T11:05:45.407Z,992.59
2019-05-25T11:06:45.433Z,992.60
2019-05-25T11:07:45.393Z,992.52
2019-05-25T11:08:45.418Z,992.55
2019-05-25T11:09:45.368Z,992.52
2019-05-25T11:10:45.362Z,992.50
2019-05-25T11:11:45.348Z,992.59
2019-05-25T11:12:45.338Z,992.55
2019-05-25T11:13:45.323Z,992.53
2019-05-25T11:14:45.318Z,992.52
2019-05-25T11:15:45.299Z,992.47
2019-05-25T11:16:45.301Z,992.51
2019-05-25T11:17:45.278Z,992.48
2019-05-25T11:18:45.305Z,992.45
2019-05-25T11:19:45.262Z,992.45
2019-05-25T11:20:45.246Z,992.47
2019-05-25T11:21:45.232Z,992.45
2019-05-25T11:22:45.306Z,992.44
2019-05-25T11:23:45.213Z,992.36
2019-05-25T11:24:45.206Z,992.36
2019-05-25T11:25:45.199Z,992.34
2019-05-25T11:26:45.181Z,992.35
2019-05-25T11:27:45.169Z,992.35
2019-05-25T11:28:45.153Z,992.34
2019-05-25T11:29:45.168Z,992.35
2019-05-25T11:30:45.133Z,992.30
2019-05-25T11:31:54.514Z,992.30
2019-05-25T11:32:46.106Z,992.26
2019-05-25T11:33:45.098Z,992.26
2019-05-25T11:34:45.146Z,992.18
2019-05-25T11:35:55.864Z,992.24
2019-05-25T11:36:45.094Z,992.25
2019-05-25T11:37:45.060Z,992.24
2019-05-25T11:38:45.081Z,992.19
2019-05-25T11:39:45.029Z,992.21
2019-05-25T11:40:45.023Z,992.19
2019-05-25T11:41:45.021Z,992.19
2019-05-25T11:42:45.009Z,992.13
2019-05-25T11:43:44.988Z,992.12
2019-05-25T11:44:44.977Z,992.10
2019-05-25T11:45:45.550Z,992.10
2019-05-25T11:46:44.957Z,992.11
2019-05-25T11:47:44.961Z,992.08
2019-05-25T11:48:44.931Z,992.06
2019-05-25T11:49:44.920Z,992.01
2019-05-25T11:50:44.907Z,992.03
2019-05-25T11:51:44.901Z,992.04
2019-05-25T11:52:45.044Z,992.02
2019-05-25T11:53:44.873Z,991.98
2019-05-25T11:54:44.861Z,991.93
2019-05-25T11:55:44.853Z,991.93
2019-05-25T11:56:44.841Z,991.95
2019-05-25T11:57:44.828Z,991.94
2019-05-25T11:58:47.378Z,991.96
2019-05-25T11:59:44.813Z,991.90
2019-05-25T12:00:44.801Z,991.85
2019-05-25T12:01:44.786Z,991.85
2019-05-25T12:02:44.774Z,991.87
2019-05-25T12:03:44.761Z,991.87
2019-05-25T12:04:44.759Z,991.80
2019-05-25T12:05:44.739Z,991.79
2019-05-25T12:06:55.011Z,991.83
2019-05-25T12:07:45.162Z,991.81
2019-05-25T12:08:44.715Z,991.90
2019-05-25T12:09:44.711Z,991.82
2019-05-25T12:10:44.736Z,991.86
2019-05-25T12:11:44.676Z,991.85
2019-05-25T12:12:44.666Z,991.84
2019-05-25T12:13:44.652Z,991.81
2019-05-25T12:14:44.649Z,991.80
2019-05-25T12:15:44.637Z,991.76
2019-05-25T12:16:44.621Z,991.83
2019-05-25T12:17:44.639Z,991.79
2019-05-25T12:18:44.596Z,991.84
2019-05-25T12:19:44.634Z,991.78
2019-05-25T12:20:44.576Z,991.80
2019-05-25T12:21:44.560Z,991.78
2019-05-25T12:22:44.556Z,991.79
2019-05-25T12:23:44.543Z,991.81
2019-05-25T12:24:44.531Z,991.79
2019-05-25T12:25:44.556Z,991.79
2019-05-25T12:26:44.510Z,991.85
2019-05-25T12:27:44.497Z,991.88
2019-05-25T12:28:44.494Z,991.83
2019-05-25T12:29:44.478Z,991.82
2019-05-25T12:30:44.463Z,991.75
2019-05-25T12:31:44.458Z,991.75
2019-05-25T12:32:44.444Z,991.66
2019-05-25T12:33:44.434Z,991.66
2019-05-25T12:34:44.421Z,991.68
2019-05-25T12:35:45.269Z,991.68
2019-05-25T12:36:44.484Z,991.66
2019-05-25T12:37:55.696Z,991.66
2019-05-25T12:38:44.372Z,991.61
2019-05-25T12:39:44.369Z,991.60
2019-05-25T12:40:53.323Z,991.61
2019-05-25T12:41:45.380Z,991.57
2019-05-25T12:42:45.974Z,991.61
2019-05-25T12:43:44.316Z,991.63
2019-05-25T12:44:44.307Z,991.59